createdAt,value
2018-05-09T00:02:50.056Z,14.18
2018-05-09T00:08:45.071Z,13.75
2018-05-09T00:14:40.099Z,13.12
2018-05-09T00:20:35.048Z,12.61
2018-05-09T00:26:30.075Z,11.42
2018-05-09T00:32:25.086Z,11.01
2018-05-09T00:38:20.086Z,11.03
2018-05-09T00:44:15.062Z,9.1
2018-05-09T00:50:10.161Z,10.49
2018-05-09T00:56:05.088Z,13.95
2018-05-09T01:02:00.095Z,13.73
2018-05-09T01:07:55.104Z,12.43
2018-05-09T01:13:50.126Z,9.45
2018-05-09T01:19:45.119Z,8.84
2018-05-09T01:25:40.172Z,9.94
2018-05-09T01:31:35.118Z,8.74
2018-05-09T01:37:30.131Z,8.1
2018-05-09T01:43:25.123Z,7.7
2018-05-09T01:49:20.088Z,9.2
2018-05-09T01:55:15.148Z,7.48
2018-05-09T02:01:10.134Z,9.2
2018-05-09T02:07:05.192Z,9.6
2018-05-09T02:13:00.134Z,11.76
2018-05-09T02:18:55.112Z,7.96
2018-05-09T02:24:50.142Z,10.9
2018-05-09T02:30:45.161Z,10.46
2018-05-09T02:36:40.156Z,10.47
2018-05-09T02:42:35.229Z,11.86
2018-05-09T02:48:30.130Z,11.46
2018-05-09T02:54:25.168Z,10.23
2018-05-09T03:00:20.186Z,12.67
2018-05-09T03:06:15.138Z,7.81
2018-05-09T03:12:10.261Z,6.97
2018-05-09T03:18:05.164Z,6.31
2018-05-09T03:24:00.191Z,7.14
2018-05-09T03:29:55.171Z,10.31
2018-05-09T03:35:50.168Z,8.02
2018-05-09T03:41:45.195Z,7.35
2018-05-09T03:47:40.216Z,9.71
2018-05-09T03:53:35.223Z,8.28
2018-05-09T03:59:30.198Z,10.78
2018-05-09T04:05:25.198Z,10.73
2018-05-09T04:11:20.198Z,10.35
2018-05-09T04:17:15.235Z,12.23
2018-05-09T04:23:10.230Z,11.72
2018-05-09T04:29:05.210Z,12.47
2018-05-09T04:35:00.201Z,13.74
2018-05-09T04:40:55.194Z,10.92
2018-05-09T04:46:50.239Z,11.07
2018-05-09T04:52:45.205Z,11.26
2018-05-09T04:58:40.282Z,10.42
2018-05-09T05:04:35.233Z,11.06
2018-05-09T05:10:30.235Z,10.58
2018-05-09T05:16:25.229Z,10.36
2018-05-09T05:22:20.268Z,10.71
2018-05-09T05:28:15.249Z,20.87
2018-05-09T05:34:10.260Z,20.48
2018-05-09T05:40:05.223Z,18.52
2018-05-09T05:46:00.269Z,14.82
2018-05-09T05:51:55.310Z,14.84
2018-05-09T05:57:50.232Z,15.16
2018-05-09T06:03:45.266Z,18.12
2018-05-09T06:09:40.241Z,15.82
2018-05-09T06:15:35.276Z,16.62
2018-05-09T06:21:30.258Z,18.25
2018-05-09T06:27:25.268Z,21.1
2018-05-09T06:33:20.292Z,20.76
2018-05-09T06:39:15.279Z,11.75
2018-05-09T06:45:10.284Z,15.03
2018-05-09T06:51:05.328Z,14.94
2018-05-09T06:57:00.277Z,14.77
2018-05-09T07:02:55.318Z,23.25
2018-05-09T07:08:50.316Z,20.99
2018-05-09T07:14:45.307Z,21.45
2018-05-09T07:20:40.274Z,20.47
2018-05-09T07:26:35.279Z,24.07
2018-05-09T07:32:30.329Z,26.39
2018-05-09T07:38:25.353Z,33.34
2018-05-09T07:44:20.312Z,30.76
2018-05-09T07:50:15.304Z,29.96
2018-05-09T07:56:10.377Z,30.18
2018-05-09T08:02:05.328Z,27.94
2018-05-09T08:08:00.344Z,30.4
2018-05-09T08:13:55.317Z,30.56
2018-05-09T08:19:50.370Z,28.73
2018-05-09T08:25:45.432Z,30.89
2018-05-09T08:31:40.317Z,29.68
2018-05-09T08:37:35.390Z,30.57
2018-05-09T08:43:30.632Z,30.92
2018-05-09T08:49:25.479Z,31.63
2018-05-09T08:55:20.399Z,37.07
2018-05-09T09:01:15.330Z,42.49
2018-05-09T09:07:10.348Z,41.21
2018-05-09T09:13:05.403Z,36.32
2018-05-09T09:19:00.388Z,37.87
2018-05-09T09:24:55.379Z,36.38
2018-05-09T09:30:50.385Z,30.84
2018-05-09T09:36:45.368Z,35.11
2018-05-09T09:42:40.351Z,32.84
2018-05-09T09:48:35.368Z,34.21
2018-05-09T09:54:30.407Z,33.77
2018-05-09T10:00:25.460Z,34.4
2018-05-09T10:06:20.408Z,34.37
2018-05-09T10:12:15.424Z,30.2
2018-05-09T10:18:10.439Z,30.63
2018-05-09T10:24:05.462Z,32.95
2018-05-09T10:30:00.419Z,18.94
2018-05-09T10:35:55.410Z,30.01
2018-05-09T10:41:50.406Z,26.99
2018-05-09T10:47:45.403Z,19.34
2018-05-09T10:53:40.434Z,19.36
2018-05-09T10:59:35.396Z,20.75
2018-05-09T11:05:30.402Z,25.38
2018-05-09T11:11:25.429Z,22.14
2018-05-09T11:17:20.421Z,18.92
2018-05-09T11:23:15.510Z,16.72
2018-05-09T11:29:10.437Z,16.77
2018-05-09T11:35:05.458Z,18.17
2018-05-09T11:41:00.445Z,15.92
2018-05-09T11:46:55.449Z,18.35
2018-05-09T11:52:50.457Z,15.36
2018-05-09T11:58:45.438Z,17.5
2018-05-09T12:04:40.499Z,21.05
2018-05-09T12:10:35.685Z,21.43
2018-05-09T12:16:30.480Z,20.1
2018-05-09T12:22:25.476Z,15.18
2018-05-09T12:28:20.459Z,17.35
2018-05-09T12:34:15.469Z,17.82
2018-05-09T12:40:10.479Z,17.76
2018-05-09T12:46:05.468Z,15.58
2018-05-09T12:52:00.498Z,16.77
2018-05-09T12:57:55.517Z,17.19
2018-05-09T13:03:50.540Z,17.82
2018-05-09T13:09:45.504Z,17.87
2018-05-09T13:15:40.488Z,20.72
2018-05-09T13:21:35.467Z,21.27
2018-05-09T13:27:30.495Z,19.51
2018-05-09T13:33:25.490Z,17.69
2018-05-09T13:39:20.536Z,14.41
2018-05-09T13:45:15.515Z,13.1
2018-05-09T13:51:10.534Z,16.46
2018-05-09T13:57:05.536Z,13.37
2018-05-09T14:03:00.562Z,13.66
2018-05-09T14:08:55.571Z,11.96
2018-05-09T14:14:50.533Z,11.39
2018-05-09T14:20:45.548Z,11.43
2018-05-09T14:26:40.533Z,9.87
2018-05-09T14:32:35.505Z,7.97
2018-05-09T14:38:30.544Z,7.22
2018-05-09T14:44:25.544Z,8.03
2018-05-09T14:50:20.590Z,5.73
2018-05-09T14:56:15.534Z,7.19
2018-05-09T15:02:10.557Z,7.4
2018-05-09T15:08:05.616Z,6.16
2018-05-09T15:14:00.657Z,4.16
2018-05-09T15:19:55.561Z,4.13
2018-05-09T15:25:50.561Z,4.79
2018-05-09T15:31:45.546Z,4.75
2018-05-09T15:37:40.589Z,6.43
2018-05-09T15:43:35.609Z,4.75
2018-05-09T15:49:30.551Z,4.58
2018-05-09T15:55:25.611Z,5.63
2018-05-09T16:01:20.560Z,5.19
2018-05-09T16:07:15.628Z,4.78
2018-05-09T16:13:10.654Z,5.1
2018-05-09T16:19:05.598Z,7.71
2018-05-09T16:25:00.599Z,35.34
2018-05-09T16:30:55.609Z,11.66
2018-05-09T16:36:50.628Z,10.72
2018-05-09T16:42:45.582Z,11.42
2018-05-09T16:48:40.596Z,10.3
2018-05-09T16:54:35.589Z,18.53
2018-05-09T17:00:30.643Z,7.36
2018-05-09T17:06:25.636Z,7.39
2018-05-09T17:12:20.638Z,5.37
2018-05-09T17:18:15.688Z,7.34
2018-05-09T17:24:10.642Z,5.09
2018-05-09T17:30:05.650Z,6.07
2018-05-09T17:36:00.619Z,5.26
2018-05-09T17:41:55.681Z,8.18
2018-05-09T17:47:50.648Z,8.37
2018-05-09T17:53:45.645Z,6.2
2018-05-09T17:59:40.665Z,5.38
2018-05-09T18:05:35.635Z,10.46
2018-05-09T18:11:30.653Z,6.19
2018-05-09T18:17:25.679Z,6.73
2018-05-09T18:23:20.686Z,6.94
2018-05-09T18:29:15.648Z,5.91
2018-05-09T18:35:10.643Z,6.07
2018-05-09T18:41:05.671Z,4.59
2018-05-09T18:47:00.652Z,5
2018-05-09T18:52:55.689Z,4.81
2018-05-09T18:58:50.701Z,4.86
2018-05-09T19:04:45.697Z,5.6
2018-05-09T19:10:40.688Z,6.1
2018-05-09T19:16:35.700Z,10.15
2018-05-09T19:22:30.677Z,8.47
2018-05-09T19:28:25.720Z,9.87
2018-05-09T19:34:20.711Z,8.95
2018-05-09T19:40:15.769Z,10.73
2018-05-09T19:46:10.711Z,7.91
2018-05-09T19:52:05.727Z,6.78
2018-05-09T19:58:00.719Z,7.33
2018-05-09T20:03:55.726Z,8.57
2018-05-09T20:09:50.696Z,9.15
2018-05-09T20:15:45.800Z,7.53
2018-05-09T20:21:40.742Z,7.57
2018-05-09T20:27:35.709Z,8.71
2018-05-09T20:33:30.728Z,10.73
2018-05-09T20:39:25.731Z,5.9
2018-05-09T20:45:20.775Z,5.77
2018-05-09T20:51:15.748Z,7.36
2018-05-09T20:57:10.788Z,7.06
2018-05-09T21:03:05.801Z,7.3
2018-05-09T21:09:00.787Z,7.42
2018-05-09T21:14:55.741Z,7.4
2018-05-09T21:20:50.788Z,6.74
2018-05-09T21:26:45.749Z,7.15
2018-05-09T21:32:40.769Z,7.4
2018-05-09T21:38:35.782Z,7.51
2018-05-09T21:44:30.813Z,7.01
2018-05-09T21:50:25.775Z,7.63
2018-05-09T21:56:20.769Z,6.94
2018-05-09T22:02:15.781Z,6.65
2018-05-09T22:08:10.788Z,8.13
2018-05-09T22:14:05.764Z,7.67
2018-05-09T22:20:00.782Z,7.51
2018-05-09T22:25:55.774Z,6.21
2018-05-09T22:31:50.809Z,5.92
2018-05-09T22:37:45.863Z,5.9
2018-05-09T22:43:40.824Z,6.32
2018-05-09T22:49:35.802Z,7.1
2018-05-09T22:55:30.858Z,7.45
2018-05-09T23:01:25.912Z,6.86
2018-05-09T23:07:20.852Z,8
2018-05-09T23:13:15.853Z,7.37
2018-05-09T23:19:10.799Z,6.92
2018-05-09T23:25:05.839Z,7.32
2018-05-09T23:31:00.832Z,6.8
2018-05-09T23:36:55.844Z,6.51
2018-05-09T23:42:50.852Z,6.34
2018-05-09T23:48:45.831Z,6.83
2018-05-09T23:54:40.854Z,7.23
